Time;durP1;ratioP1;P1;durP2;ratioP2;P2;SDS_P1;SDS_P2;PMS_P1;PMS_P2;Temp;Humidity;BMP_temperature;BMP_pressure;BME280_temperature;BME280_humidity;BME280_pressure;Samples;Min_cycle;Max_cycle;Signal;HPM_P1;HPM_P2
2021/10/18 00:00:55;;;;;;;13.67;11.93;;;;;;;;;;5095390;28;20936;-76
2021/10/18 00:03:23;;;;;;;15.17;12.30;;;;;;;;;;5095088;28;20559;-76
2021/10/18 00:05:50;;;;;;;13.27;11.70;;;;;;;;;;5095034;28;20515;-76
2021/10/18 00:08:18;;;;;;;13.30;12.00;;;;;;;;;;5095268;28;20779;-75
2021/10/18 00:10:46;;;;;;;13.13;11.93;;;;;;;;;;5095140;28;20441;-74
2021/10/18 00:13:13;;;;;;;16.53;13.40;;;;;;;;;;5095144;28;20452;-74
2021/10/18 00:15:40;;;;;;;16.13;12.63;;;;;;;;;;5095124;28;20442;-74
2021/10/18 00:18:07;;;;;;;15.13;12.77;;;;;;;;;;5094961;28;20488;-75
2021/10/18 00:20:35;;;;;;;17.50;12.60;;;;;;;;;;5094667;28;20956;-74
2021/10/18 00:23:02;;;;;;;16.53;12.77;;;;;;;;;;5094940;28;20440;-75
2021/10/18 00:25:30;;;;;;;13.40;11.70;;;;;;;;;;5094564;28;20443;-74
2021/10/18 00:27:57;;;;;;;15.50;11.17;;;;;;;;;;5094839;28;20470;-74
2021/10/18 00:30:25;;;;;;;16.30;11.27;;;;;;;;;;5095195;28;20439;-76
2021/10/18 00:32:52;;;;;;;14.50;12.03;;;;;;;;;;5095381;28;20757;-76
2021/10/18 00:35:19;;;;;;;17.00;12.33;;;;;;;;;;5094069;28;20926;-76
2021/10/18 00:37:46;;;;;;;14.47;12.20;;;;;;;;;;5094264;28;20464;-76
2021/10/18 00:40:14;;;;;;;12.40;10.83;;;;;;;;;;5094339;28;20930;-76
2021/10/18 00:42:43;;;;;;;16.63;11.97;;;;;;;;;;5094447;28;20949;-76
2021/10/18 00:45:10;;;;;;;16.10;12.10;;;;;;;;;;5094225;28;20440;-76
2021/10/18 00:47:38;;;;;;;15.27;12.40;;;;;;;;;;5094532;28;20783;-75
2021/10/18 00:50:05;;;;;;;14.47;10.60;;;;;;;;;;5094131;28;20538;-76
2021/10/18 00:52:33;;;;;;;15.13;11.53;;;;;;;;;;5094414;28;20437;-76
2021/10/18 00:55:01;;;;;;;13.20;11.40;;;;;;;;;;5094683;28;20435;-76
2021/10/18 00:57:28;;;;;;;15.53;12.30;;;;;;;;;;5094235;28;20475;-76
2021/10/18 00:59:57;;;;;;;18.43;11.20;;;;;;;;;;5094306;28;20556;-76
2021/10/18 01:02:24;;;;;;;13.90;11.00;;;;;;;;;;5093777;28;20448;-75
2021/10/18 01:04:52;;;;;;;14.37;11.70;;;;;;;;;;5094486;28;20471;-76
2021/10/18 01:07:19;;;;;;;16.17;11.37;;;;;;;;;;5093867;28;20783;-75
2021/10/18 01:09:47;;;;;;;15.40;11.13;;;;;;;;;;5093885;28;20952;-75
2021/10/18 01:12:14;;;;;;;12.93;11.60;;;;;;;;;;5094164;28;20854;-75
2021/10/18 01:14:41;;;;;;;16.90;11.83;;;;;;;;;;5094462;28;20439;-76
2021/10/18 01:17:10;;;;;;;14.17;11.27;;;;;;;;;;5093914;28;20577;-76
2021/10/18 01:19:37;;;;;;;14.17;11.70;;;;;;;;;;5093636;28;20526;-76
2021/10/18 01:22:06;;;;;;;14.70;11.37;;;;;;;;;;5093969;28;20811;-76
2021/10/18 01:24:34;;;;;;;14.10;10.73;;;;;;;;;;5094044;28;20450;-76
2021/10/18 01:27:01;;;;;;;15.10;11.33;;;;;;;;;;5093831;28;20462;-76
2021/10/18 01:29:31;;;;;;;16.40;13.53;;;;;;;;;;5093775;28;20447;-76
2021/10/18 01:31:58;;;;;;;16.00;12.40;;;;;;;;;;5093735;28;20802;-76
2021/10/18 01:34:26;;;;;;;15.07;12.27;;;;;;;;;;5093725;28;20450;-75
2021/10/18 01:36:54;;;;;;;16.77;13.17;;;;;;;;;;5093596;28;20447;-76
2021/10/18 01:39:23;;;;;;;15.90;13.00;;;;;;;;;;5094210;28;20441;-76
2021/10/18 01:41:50;;;;;;;14.50;12.90;;;;;;;;;;5093321;28;20934;-76
2021/10/18 01:44:17;;;;;;;14.93;13.23;;;;;;;;;;5094006;28;20930;-76
2021/10/18 01:46:44;;;;;;;14.00;12.20;;;;;;;;;;5093031;28;20801;-77
2021/10/18 01:49:13;;;;;;;18.17;13.17;;;;;;;;;;5093558;28;20440;-78
2021/10/18 01:51:40;;;;;;;16.23;12.97;;;;;;;;;;5093580;28;20601;-78
2021/10/18 01:54:07;;;;;;;14.37;12.87;;;;;;;;;;5093994;28;20442;-77
2021/10/18 01:56:36;;;;;;;17.07;13.57;;;;;;;;;;5093494;28;20443;-77
2021/10/18 01:59:04;;;;;;;15.53;13.93;;;;;;;;;;5093091;28;20489;-76
2021/10/18 02:01:31;;;;;;;17.77;14.20;;;;;;;;;;5093149;28;20943;-75
2021/10/18 02:03:58;;;;;;;14.50;13.00;;;;;;;;;;5093409;28;20503;-76
2021/10/18 02:06:25;;;;;;;18.63;11.90;;;;;;;;;;5093421;28;20439;-75
2021/10/18 02:08:54;;;;;;;15.70;13.83;;;;;;;;;;5093048;28;20450;-75
2021/10/18 02:11:21;;;;;;;14.40;12.80;;;;;;;;;;5093409;28;20448;-76
2021/10/18 02:13:49;;;;;;;16.23;12.83;;;;;;;;;;5093102;28;20447;-76
2021/10/18 02:16:16;;;;;;;14.67;13.10;;;;;;;;;;5093705;28;20779;-76
2021/10/18 02:18:44;;;;;;;15.00;12.53;;;;;;;;;;5094090;28;20479;-76
2021/10/18 02:21:11;;;;;;;19.00;13.97;;;;;;;;;;5093319;28;20526;-76
2021/10/18 02:23:38;;;;;;;13.37;11.70;;;;;;;;;;5092924;28;20450;-76
2021/10/18 02:26:06;;;;;;;14.30;12.60;;;;;;;;;;5093286;28;20479;-77
2021/10/18 02:28:33;;;;;;;17.10;13.07;;;;;;;;;;5092938;28;21109;-77
2021/10/18 02:31:01;;;;;;;15.20;12.93;;;;;;;;;;5093279;28;20446;-77
2021/10/18 02:33:29;;;;;;;14.30;12.00;;;;;;;;;;5093205;28;20522;-76
2021/10/18 02:35:56;;;;;;;13.23;11.80;;;;;;;;;;5093166;28;20436;-76
2021/10/18 02:38:23;;;;;;;13.67;12.27;;;;;;;;;;5092758;28;20468;-76
2021/10/18 02:40:50;;;;;;;16.47;12.17;;;;;;;;;;5093126;28;20444;-75
2021/10/18 02:43:18;;;;;;;17.10;13.00;;;;;;;;;;5093059;28;20445;-77
2021/10/18 02:45:45;;;;;;;14.53;13.13;;;;;;;;;;5093665;28;20513;-77
2021/10/18 02:48:13;;;;;;;13.30;11.97;;;;;;;;;;5093046;28;20447;-76
2021/10/18 02:50:40;;;;;;;13.17;11.27;;;;;;;;;;5093004;28;20446;-76
2021/10/18 02:53:08;;;;;;;15.23;13.03;;;;;;;;;;5093012;28;20435;-75
2021/10/18 02:55:35;;;;;;;17.23;11.03;;;;;;;;;;5092631;28;20442;-76
2021/10/18 02:58:02;;;;;;;12.73;11.10;;;;;;;;;;5095720;28;20987;-75
2021/10/18 03:00:29;;;;;;;13.23;11.50;;;;;;;;;;5096570;28;20789;-76
2021/10/18 03:02:56;;;;;;;12.97;11.60;;;;;;;;;;5096014;28;20436;-76
2021/10/18 03:05:25;;;;;;;16.37;12.40;;;;;;;;;;5096102;28;20451;-75
2021/10/18 03:07:52;;;;;;;13.30;11.90;;;;;;;;;;5096346;28;20798;-76
2021/10/18 03:10:20;;;;;;;15.30;11.30;;;;;;;;;;5096128;28;20496;-76
2021/10/18 03:12:47;;;;;;;11.77;10.57;;;;;;;;;;5095907;28;20450;-76
2021/10/18 03:15:15;;;;;;;13.37;11.10;;;;;;;;;;5095690;28;20444;-76
2021/10/18 03:17:42;;;;;;;14.77;10.93;;;;;;;;;;5095958;28;20471;-75
2021/10/18 03:20:10;;;;;;;11.87;10.70;;;;;;;;;;5095583;28;20934;-75
2021/10/18 03:22:40;;;;;;;14.97;11.33;;;;;;;;;;5095877;28;20439;-75
2021/10/18 03:25:08;;;;;;;11.90;10.70;;;;;;;;;;5095952;28;20432;-75
2021/10/18 03:27:35;;;;;;;12.33;11.10;;;;;;;;;;5095403;28;20439;-75
2021/10/18 03:30:03;;;;;;;12.77;11.40;;;;;;;;;;5095841;28;20514;-75
2021/10/18 03:32:30;;;;;;;12.70;11.03;;;;;;;;;;5095736;28;20432;-75
2021/10/18 03:34:57;;;;;;;13.70;10.00;;;;;;;;;;5095366;28;20443;-77
2021/10/18 03:37:24;;;;;;;12.63;10.30;;;;;;;;;;5095220;28;20941;-77
2021/10/18 03:39:53;;;;;;;13.73;10.40;;;;;;;;;;5095579;28;20449;-76
2021/10/18 03:42:20;;;;;;;12.17;10.10;;;;;;;;;;5095411;28;20444;-76
2021/10/18 03:44:47;;;;;;;12.07;10.30;;;;;;;;;;5095996;28;20441;-76
2021/10/18 03:47:14;;;;;;;12.70;11.00;;;;;;;;;;5095395;28;20439;-76
2021/10/18 03:49:41;;;;;;;11.20;10.10;;;;;;;;;;5095513;28;20456;-76
2021/10/18 03:52:08;;;;;;;11.47;9.47;;;;;;;;;;5095795;28;20440;-76
2021/10/18 03:54:36;;;;;;;10.10;9.10;;;;;;;;;;5094974;28;20438;-76
2021/10/18 03:57:04;;;;;;;15.87;9.63;;;;;;;;;;5094843;28;20440;-76
2021/10/18 03:59:32;;;;;;;13.57;10.60;;;;;;;;;;5094784;28;20997;-76
2021/10/18 04:01:59;;;;;;;10.83;9.73;;;;;;;;;;5095666;28;20461;-76
2021/10/18 04:04:26;;;;;;;15.23;10.10;;;;;;;;;;5094640;28;20476;-76
2021/10/18 04:06:53;;;;;;;10.20;9.20;;;;;;;;;;5095166;28;20442;-76
2021/10/18 04:09:20;;;;;;;12.33;9.40;;;;;;;;;;5094366;28;20446;-76
2021/10/18 04:11:47;;;;;;;9.97;8.90;;;;;;;;;;5094910;28;20436;-77
2021/10/18 04:14:16;;;;;;;15.50;10.07;;;;;;;;;;5095024;28;20448;-77
2021/10/18 04:16:43;;;;;;;10.50;9.40;;;;;;;;;;5094877;28;20464;-76
2021/10/18 04:19:10;;;;;;;9.93;9.03;;;;;;;;;;5094687;28;20471;-69
2021/10/18 04:21:37;;;;;;;10.90;8.90;;;;;;;;;;5094726;28;20443;-71
2021/10/18 04:24:05;;;;;;;11.97;9.60;;;;;;;;;;5095023;28;20441;-70
2021/10/18 04:26:32;;;;;;;12.47;10.43;;;;;;;;;;5094330;28;20447;-70
2021/10/18 04:28:59;;;;;;;11.50;9.10;;;;;;;;;;5094599;28;20447;-70
2021/10/18 04:31:29;;;;;;;10.87;9.67;;;;;;;;;;5093940;28;20440;-70
2021/10/18 04:33:57;;;;;;;10.60;8.30;;;;;;;;;;5094060;28;20439;-70
2021/10/18 04:36:24;;;;;;;12.60;9.33;;;;;;;;;;5094251;28;20953;-70
2021/10/18 04:38:52;;;;;;;9.30;8.40;;;;;;;;;;5094633;28;20479;-70
2021/10/18 04:41:19;;;;;;;12.30;9.60;;;;;;;;;;5094583;28;20439;-70
2021/10/18 04:43:46;;;;;;;11.90;9.40;;;;;;;;;;5094422;28;20447;-69
2021/10/18 04:46:14;;;;;;;10.00;8.93;;;;;;;;;;5093877;28;20447;-69
2021/10/18 04:48:42;;;;;;;10.17;8.60;;;;;;;;;;5093886;28;20460;-69
2021/10/18 04:51:09;;;;;;;12.80;9.80;;;;;;;;;;5094636;28;20448;-69
2021/10/18 04:53:37;;;;;;;16.43;9.60;;;;;;;;;;5094020;28;20926;-70
2021/10/18 04:56:04;;;;;;;14.10;10.03;;;;;;;;;;5094047;28;20443;-69
2021/10/18 04:58:31;;;;;;;11.47;9.00;;;;;;;;;;5093421;28;20486;-69
2021/10/18 05:00:58;;;;;;;10.63;9.43;;;;;;;;;;5093523;28;20444;-70
2021/10/18 05:03:26;;;;;;;10.20;8.90;;;;;;;;;;5093624;28;20909;-70
2021/10/18 05:05:54;;;;;;;12.93;9.18;;;;;;;;;;5093876;28;20589;-70
2021/10/18 05:08:22;;;;;;;9.70;8.73;;;;;;;;;;5093625;28;20658;-70
2021/10/18 05:10:49;;;;;;;12.20;9.10;;;;;;;;;;5093865;28;20235;-69
2021/10/18 05:13:16;;;;;;;18.43;8.70;;;;;;;;;;5093777;28;20192;-71
2021/10/18 05:15:46;;;;;;;11.00;9.47;;;;;;;;;;5093988;28;20527;-70
2021/10/18 05:18:13;;;;;;;9.73;8.33;;;;;;;;;;5093273;28;20475;-70
2021/10/18 05:20:40;;;;;;;11.33;9.97;;;;;;;;;;5093490;28;20448;-70
2021/10/18 05:23:09;;;;;;;17.97;9.57;;;;;;;;;;5094054;28;20446;-70
2021/10/18 05:25:36;;;;;;;8.83;7.93;;;;;;;;;;5093322;28;21018;-70
2021/10/18 05:28:03;;;;;;;15.33;8.83;;;;;;;;;;5093540;28;20479;-70
2021/10/18 05:30:30;;;;;;;10.63;9.17;;;;;;;;;;5092960;28;20450;-70
2021/10/18 05:32:58;;;;;;;14.70;9.20;;;;;;;;;;5092147;28;20947;-69
2021/10/18 05:35:26;;;;;;;10.00;9.00;;;;;;;;;;5092038;28;20534;-69
2021/10/18 05:37:54;;;;;;;12.40;9.00;;;;;;;;;;5093120;28;20440;-67
2021/10/18 05:40:23;;;;;;;12.40;9.90;;;;;;;;;;5092936;28;20447;-75
2021/10/18 05:42:51;;;;;;;12.80;9.90;;;;;;;;;;5092985;28;20451;-73
2021/10/18 05:45:18;;;;;;;12.47;9.23;;;;;;;;;;5094025;28;20441;-73
2021/10/18 05:47:52;;;;;;;14.90;11.20;;;;;;;;;;5093947;28;20439;-74
2021/10/18 05:50:20;;;;;;;9.50;8.50;;;;;;;;;;5093625;28;20460;-73
2021/10/18 05:52:47;;;;;;;13.27;9.03;;;;;;;;;;5093023;28;20436;-73
2021/10/18 05:55:14;;;;;;;12.40;8.03;;;;;;;;;;5093642;28;20537;-73
2021/10/18 05:57:50;;;;;;;12.23;10.13;;;;;;;;;;5093206;28;20432;-74
2021/10/18 06:00:18;;;;;;;12.73;9.03;;;;;;;;;;5092843;28;20455;-74
2021/10/18 06:02:45;;;;;;;10.10;8.97;;;;;;;;;;5093137;28;20443;-74
2021/10/18 06:05:12;;;;;;;10.43;7.87;;;;;;;;;;5093837;28;20542;-73
2021/10/18 06:07:39;;;;;;;12.97;8.60;;;;;;;;;;5093177;28;20444;-74
2021/10/18 06:10:08;;;;;;;11.00;8.80;;;;;;;;;;5093190;28;20450;-74
2021/10/18 06:12:35;;;;;;;9.67;8.67;;;;;;;;;;5093543;28;20485;-73
2021/10/18 06:15:04;;;;;;;35.93;19.43;;;;;;;;;;5093085;28;20442;-74
2021/10/18 06:17:31;;;;;;;14.70;9.43;;;;;;;;;;5092816;28;20955;-74
2021/10/18 06:19:59;;;;;;;12.90;8.03;;;;;;;;;;5092744;28;21000;-74
2021/10/18 06:22:26;;;;;;;12.93;9.57;;;;;;;;;;5093125;28;20799;-74
2021/10/18 06:24:53;;;;;;;11.80;9.07;;;;;;;;;;5093072;28;20804;-74
2021/10/18 06:27:21;;;;;;;11.10;9.50;;;;;;;;;;5093030;28;20435;-74
2021/10/18 06:29:48;;;;;;;13.00;9.30;;;;;;;;;;5093462;28;20540;-74
2021/10/18 06:32:17;;;;;;;10.67;8.90;;;;;;;;;;5094326;28;20523;-74
2021/10/18 06:34:44;;;;;;;11.00;9.03;;;;;;;;;;5096523;28;20447;-74
2021/10/18 06:37:12;;;;;;;12.90;8.30;;;;;;;;;;5096641;28;20463;-74
2021/10/18 06:39:39;;;;;;;10.93;8.20;;;;;;;;;;5097100;28;20477;-73
2021/10/18 06:42:06;;;;;;;12.20;9.33;;;;;;;;;;5096282;28;20440;-74
2021/10/18 06:44:33;;;;;;;13.90;8.60;;;;;;;;;;5096322;28;20439;-73
2021/10/18 06:47:00;;;;;;;9.50;7.90;;;;;;;;;;5096631;28;20444;-74
2021/10/18 06:49:29;;;;;;;10.30;8.13;;;;;;;;;;5096270;28;20523;-73
2021/10/18 06:51:57;;;;;;;11.27;9.17;;;;;;;;;;5097325;28;20442;-74
2021/10/18 06:54:25;;;;;;;12.33;8.60;;;;;;;;;;5096271;28;20490;-74
2021/10/18 06:56:52;;;;;;;12.63;7.77;;;;;;;;;;5096132;28;20994;-74
2021/10/18 06:59:19;;;;;;;10.27;9.17;;;;;;;;;;5096864;28;20977;-73
2021/10/18 07:01:47;;;;;;;11.50;8.27;;;;;;;;;;5095996;28;20444;-73
2021/10/18 07:04:18;;;;;;;14.40;9.80;;;;;;;;;;5096468;28;20493;-72
2021/10/18 07:06:47;;;;;;;9.90;8.27;;;;;;;;;;5096026;28;20428;-73
2021/10/18 07:09:14;;;;;;;11.97;8.70;;;;;;;;;;5096870;28;20450;-74
2021/10/18 07:11:41;;;;;;;10.40;8.00;;;;;;;;;;5096194;28;20935;-74
2021/10/18 07:14:08;;;;;;;9.67;8.00;;;;;;;;;;5096554;28;20790;-74
2021/10/18 07:16:35;;;;;;;11.40;9.30;;;;;;;;;;5096338;28;20451;-74
2021/10/18 07:19:03;;;;;;;14.30;10.57;;;;;;;;;;5095791;28;20940;-74
2021/10/18 07:21:30;;;;;;;11.90;8.47;;;;;;;;;;5096085;28;20442;-74
2021/10/18 07:24:03;;;;;;;10.60;9.50;;;;;;;;;;5095982;28;20530;-74
2021/10/18 07:26:30;;;;;;;10.17;8.80;;;;;;;;;;5095640;28;20463;-74
2021/10/18 07:28:58;;;;;;;11.50;8.57;;;;;;;;;;5095869;28;20449;-74
2021/10/18 07:31:25;;;;;;;11.53;7.80;;;;;;;;;;5095466;28;20962;-74
2021/10/18 07:33:56;;;;;;;14.10;9.43;;;;;;;;;;5095812;28;20431;-74
2021/10/18 07:36:25;;;;;;;10.93;8.63;;;;;;;;;;5096260;28;20436;-74
2021/10/18 07:38:53;;;;;;;9.63;8.10;;;;;;;;;;5095691;28;20440;-73
2021/10/18 07:41:22;;;;;;;10.73;8.10;;;;;;;;;;5095504;28;20436;-74
2021/10/18 07:43:49;;;;;;;9.10;7.90;;;;;;;;;;5095754;28;20451;-74
2021/10/18 07:46:17;;;;;;;8.60;7.10;;;;;;;;;;5095506;28;20439;-74
2021/10/18 07:48:45;;;;;;;14.67;7.80;;;;;;;;;;5096136;28;20452;-74
2021/10/18 07:51:12;;;;;;;9.80;7.63;;;;;;;;;;5096074;28;20444;-74
2021/10/18 07:53:39;;;;;;;10.03;7.70;;;;;;;;;;5095660;28;20444;-73
2021/10/18 07:56:06;;;;;;;10.70;8.77;;;;;;;;;;5095638;28;20443;-73
2021/10/18 07:58:35;;;;;;;11.40;7.80;;;;;;;;;;5095980;28;20443;-74
2021/10/18 08:01:02;;;;;;;11.50;8.60;;;;;;;;;;5096710;28;20985;-74
2021/10/18 08:03:29;;;;;;;10.20;9.07;;;;;;;;;;5096035;28;20986;-74
2021/10/18 08:05:56;;;;;;;10.50;9.03;;;;;;;;;;5095183;28;20438;-73
2021/10/18 08:08:29;;;;;;;10.37;8.87;;;;;;;;;;5094991;28;20940;-73
2021/10/18 08:10:56;;;;;;;10.67;8.90;;;;;;;;;;5095853;28;20462;-73
2021/10/18 08:13:23;;;;;;;18.30;9.40;;;;;;;;;;5095234;28;20531;-74
2021/10/18 08:15:52;;;;;;;10.37;8.20;;;;;;;;;;5094596;28;20447;-73
2021/10/18 08:18:19;;;;;;;12.67;9.90;;;;;;;;;;5094757;28;20472;-73
2021/10/18 08:20:47;;;;;;;17.03;9.43;;;;;;;;;;5095159;28;20482;-73
2021/10/18 08:23:14;;;;;;;10.07;8.63;;;;;;;;;;5095130;28;20524;-74
2021/10/18 08:25:42;;;;;;;9.73;8.73;;;;;;;;;;5094755;28;20432;-74
2021/10/18 08:28:09;;;;;;;9.50;8.60;;;;;;;;;;5094665;28;20436;-73
2021/10/18 08:30:36;;;;;;;10.63;8.90;;;;;;;;;;5094568;28;20848;-74
2021/10/18 08:33:05;;;;;;;12.20;8.90;;;;;;;;;;5093875;28;20440;-74
2021/10/18 08:35:33;;;;;;;12.47;9.50;;;;;;;;;;5094616;28;20787;-74
2021/10/18 08:38:18;;;;;;;9.40;7.83;;;;;;;;;;5094551;28;20522;-73
2021/10/18 08:40:50;;;;;;;13.77;8.50;;;;;;;;;;5094041;28;20467;-73
2021/10/18 08:44:13;;;;;;;10.73;9.00;;;;;;;;;;5094730;28;20452;-74
2021/10/18 08:46:14;;;;;;;11.50;8.33;;;;;;;;;;5093979;28;20481;-74
2021/10/18 08:48:49;;;;;;;10.40;8.13;;;;;;;;;;5093920;28;20934;-73
2021/10/18 08:51:16;;;;;;;15.17;8.00;;;;;;;;;;5094022;28;20934;-74
2021/10/18 08:53:44;;;;;;;11.27;8.27;;;;;;;;;;5093962;28;20526;-74
2021/10/18 08:56:12;;;;;;;10.70;8.47;;;;;;;;;;5093737;28;20435;-74
2021/10/18 08:58:39;;;;;;;11.23;8.50;;;;;;;;;;5094211;28;20535;-74
2021/10/18 09:01:06;;;;;;;10.53;8.90;;;;;;;;;;5093937;28;20468;-74
2021/10/18 09:03:34;;;;;;;11.07;8.37;;;;;;;;;;5093834;28;20479;-75
2021/10/18 09:06:12;;;;;;;11.80;8.30;;;;;;;;;;5094037;28;20445;-74
2021/10/18 09:08:40;;;;;;;10.13;8.83;;;;;;;;;;5093667;28;20875;-74
2021/10/18 09:11:09;;;;;;;10.27;9.27;;;;;;;;;;5093573;28;20535;-74
2021/10/18 09:13:37;;;;;;;11.63;8.93;;;;;;;;;;5093950;28;20532;-74
2021/10/18 09:16:04;;;;;;;10.37;9.23;;;;;;;;;;5093568;28;20446;-74
2021/10/18 09:18:31;;;;;;;9.30;8.40;;;;;;;;;;5093844;28;20443;-74
2021/10/18 09:20:59;;;;;;;10.07;9.07;;;;;;;;;;5093578;28;20487;-74
2021/10/18 09:23:29;;;;;;;9.67;8.37;;;;;;;;;;5093587;28;20440;-74
2021/10/18 09:25:59;;;;;;;10.17;8.17;;;;;;;;;;5093351;28;20423;-74
2021/10/18 09:28:27;;;;;;;10.90;8.67;;;;;;;;;;5093662;28;20460;-74
2021/10/18 09:30:55;;;;;;;8.63;7.83;;;;;;;;;;5093192;28;20446;-74
2021/10/18 09:33:24;;;;;;;12.53;8.53;;;;;;;;;;5093632;28;20587;-74
2021/10/18 09:35:52;;;;;;;11.17;8.33;;;;;;;;;;5093235;28;20497;-74
2021/10/18 09:38:21;;;;;;;13.93;9.73;;;;;;;;;;5093601;28;20436;-74
2021/10/18 09:40:50;;;;;;;13.07;8.40;;;;;;;;;;5093548;28;20837;-74
2021/10/18 09:43:21;;;;;;;11.67;9.20;;;;;;;;;;5094067;28;20453;-74
2021/10/18 09:46:07;;;;;;;14.93;10.50;;;;;;;;;;5094187;28;20435;-73
2021/10/18 10:53:15;;;;;;;15.07;9.77;;;;;;;;;;5096428;28;20887;-73
2021/10/18 10:55:42;;;;;;;16.60;10.00;;;;;;;;;;5096212;28;20424;-73
2021/10/18 10:58:24;;;;;;;17.23;9.37;;;;;;;;;;5096646;28;20429;-73
2021/10/18 11:00:51;;;;;;;13.57;9.40;;;;;;;;;;5096028;28;20481;-73
2021/10/18 11:03:42;;;;;;;11.13;9.97;;;;;;;;;;5095763;28;20470;-74
2021/10/18 11:06:13;;;;;;;12.03;8.80;;;;;;;;;;5095270;28;20487;-74
2021/10/18 11:08:41;;;;;;;14.37;10.67;;;;;;;;;;5094941;28;20524;-74
2021/10/18 11:11:12;;;;;;;15.00;10.43;;;;;;;;;;5094604;28;20532;-74
2021/10/18 11:13:49;;;;;;;11.57;10.03;;;;;;;;;;5094977;28;20461;-73
2021/10/18 11:16:16;;;;;;;13.40;10.63;;;;;;;;;;5095025;28;20536;-74
2021/10/18 11:18:47;;;;;;;13.50;9.10;;;;;;;;;;5094542;28;20777;-74
2021/10/18 11:21:16;;;;;;;13.50;10.50;;;;;;;;;;5095350;28;20812;-74
2021/10/18 11:23:56;;;;;;;14.70;10.10;;;;;;;;;;5095355;28;20447;-74
2021/10/18 11:26:23;;;;;;;16.20;10.67;;;;;;;;;;5094481;28;20552;-74
2021/10/18 11:28:52;;;;;;;15.33;10.40;;;;;;;;;;5094416;28;20923;-74
2021/10/18 11:31:19;;;;;;;13.77;9.37;;;;;;;;;;5094637;28;20528;-74
2021/10/18 11:34:01;;;;;;;14.73;9.73;;;;;;;;;;5094583;28;20540;-73
2021/10/18 11:36:28;;;;;;;11.63;9.47;;;;;;;;;;5095451;28;20450;-74
2021/10/18 11:39:10;;;;;;;17.53;10.30;;;;;;;;;;5094783;28;20451;-74
2021/10/18 11:41:56;;;;;;;12.43;10.00;;;;;;;;;;5092034;28;20473;-74
2021/10/18 11:44:38;;;;;;;15.97;10.03;;;;;;;;;;5094714;28;20453;-75
2021/10/18 11:47:05;;;;;;;13.00;9.70;;;;;;;;;;5094389;28;20423;-74
2021/10/18 11:49:34;;;;;;;16.37;9.93;;;;;;;;;;5094648;28;20934;-74
2021/10/18 11:52:07;;;;;;;12.03;9.23;;;;;;;;;;5094154;28;20452;-74
2021/10/18 11:54:34;;;;;;;11.10;9.97;;;;;;;;;;5093968;28;20425;-74
2021/10/18 11:57:02;;;;;;;9.30;8.40;;;;;;;;;;5094002;28;20440;-79
2021/10/18 11:59:29;;;;;;;14.10;8.27;;;;;;;;;;5094698;28;20442;-78
2021/10/18 12:01:56;;;;;;;11.80;9.53;;;;;;;;;;5093887;28;20478;-78
2021/10/18 12:04:24;;;;;;;13.47;8.70;;;;;;;;;;5055988;28;1094892;-77
2021/10/18 12:06:52;;;;;;;12.57;7.67;;;;;;;;;;5095166;28;20193;-80
2021/10/18 12:09:28;;;;;;;13.50;8.30;;;;;;;;;;5095152;28;20521;-78
2021/10/18 12:11:56;;;;;;;12.70;8.10;;;;;;;;;;5094953;28;20455;-76
2021/10/18 12:14:23;;;;;;;8.90;6.93;;;;;;;;;;5094409;28;20458;-77
2021/10/18 12:16:50;;;;;;;11.83;7.20;;;;;;;;;;5092476;28;20561;-77
2021/10/18 12:19:17;;;;;;;14.17;8.63;;;;;;;;;;5094844;28;20449;-77
2021/10/18 12:21:48;;;;;;;19.33;9.20;;;;;;;;;;5094690;28;20851;-78
2021/10/18 12:24:18;;;;;;;13.10;9.00;;;;;;;;;;5095292;28;21073;-76
2021/10/18 12:26:46;;;;;;;16.87;9.73;;;;;;;;;;5074440;28;20794;-76
2021/10/18 12:29:14;;;;;;;11.50;9.93;;;;;;;;;;5073372;28;20438;-79
2021/10/18 12:31:42;;;;;;;13.00;9.10;;;;;;;;;;5074432;28;20449;-78
2021/10/18 12:34:10;;;;;;;12.53;8.53;;;;;;;;;;5074008;28;20938;-77
2021/10/18 12:36:47;;;;;;;13.30;8.83;;;;;;;;;;5087881;28;20450;-76
2021/10/18 12:39:15;;;;;;;11.50;8.37;;;;;;;;;;5094556;28;20425;-77
2021/10/18 12:41:44;;;;;;;15.50;7.80;;;;;;;;;;5094349;28;20485;-80
2021/10/18 12:44:13;;;;;;;11.50;9.00;;;;;;;;;;5094613;28;20943;-77
2021/10/18 12:46:41;;;;;;;12.73;8.83;;;;;;;;;;5094280;28;20469;-76
2021/10/18 12:49:09;;;;;;;12.50;7.20;;;;;;;;;;5094322;28;20495;-76
2021/10/18 12:51:42;;;;;;;11.10;9.13;;;;;;;;;;5094283;28;20466;-77
2021/10/18 12:54:17;;;;;;;15.47;8.60;;;;;;;;;;5094287;28;20514;-77
2021/10/18 12:56:56;;;;;;;16.90;8.50;;;;;;;;;;5083377;28;20449;-76
2021/10/18 12:59:24;;;;;;;12.83;7.87;;;;;;;;;;5073558;28;20434;-75
2021/10/18 13:02:06;;;;;;;13.73;7.80;;;;;;;;;;5073888;28;20483;-76
2021/10/18 13:04:33;;;;;;;8.33;6.73;;;;;;;;;;5074014;28;20480;-76
2021/10/18 13:07:00;;;;;;;16.90;7.77;;;;;;;;;;5073742;28;20450;-76
2021/10/18 13:09:28;;;;;;;7.80;7.00;;;;;;;;;;5073718;28;20450;-76
2021/10/18 13:11:56;;;;;;;8.87;6.37;;;;;;;;;;5073611;28;20450;-75
2021/10/18 13:14:23;;;;;;;17.50;7.83;;;;;;;;;;5073707;28;20528;-76
2021/10/18 13:16:50;;;;;;;6.90;6.20;;;;;;;;;;5091568;28;20445;-76
2021/10/18 13:19:18;;;;;;;10.27;7.40;;;;;;;;;;5093833;28;20442;-76
2021/10/18 13:21:45;;;;;;;12.17;6.70;;;;;;;;;;5093791;28;20504;-76
2021/10/18 13:24:12;;;;;;;7.37;6.00;;;;;;;;;;5094024;28;20435;-75
2021/10/18 13:26:39;;;;;;;13.43;8.77;;;;;;;;;;5093702;28;20451;-76
2021/10/18 13:29:08;;;;;;;12.80;8.10;;;;;;;;;;5093775;28;20457;-77
2021/10/18 13:31:35;;;;;;;9.27;6.53;;;;;;;;;;5093371;28;20512;-75
2021/10/18 13:34:04;;;;;;;11.10;7.07;;;;;;;;;;5093304;28;20440;-76
2021/10/18 13:36:31;;;;;;;7.63;6.53;;;;;;;;;;5093293;28;20457;-76
2021/10/18 13:39:01;;;;;;;8.80;6.13;;;;;;;;;;5093704;28;20481;-76
2021/10/18 13:41:28;;;;;;;10.70;6.47;;;;;;;;;;5093598;28;20483;-76
2021/10/18 13:43:56;;;;;;;9.40;6.53;;;;;;;;;;5093419;28;20458;-75
2021/10/18 13:46:24;;;;;;;9.33;6.57;;;;;;;;;;5093207;28;20805;-75
2021/10/18 13:48:52;;;;;;;7.33;5.73;;;;;;;;;;5093398;28;20433;-77
2021/10/18 13:51:21;;;;;;;10.70;9.20;;;;;;;;;;5093298;28;20446;-77
2021/10/18 13:53:50;;;;;;;9.73;7.47;;;;;;;;;;5093333;28;20806;-75
2021/10/18 13:56:19;;;;;;;8.00;6.00;;;;;;;;;;5093285;28;20436;-75
2021/10/18 13:58:46;;;;;;;6.80;5.40;;;;;;;;;;5092928;28;20455;-76
2021/10/18 14:01:14;;;;;;;5.87;5.13;;;;;;;;;;5086580;28;20480;-76
2021/10/18 14:03:43;;;;;;;9.97;6.17;;;;;;;;;;5072792;28;20475;-76
2021/10/18 14:06:12;;;;;;;7.70;4.83;;;;;;;;;;5072712;28;20547;-76
2021/10/18 14:08:39;;;;;;;6.80;5.20;;;;;;;;;;5073630;28;20447;-76
2021/10/18 14:11:07;;;;;;;6.90;5.77;;;;;;;;;;5072909;28;20469;-76
2021/10/18 14:13:34;;;;;;;9.70;4.60;;;;;;;;;;5073087;28;20447;-76
2021/10/18 14:16:02;;;;;;;10.83;5.87;;;;;;;;;;5072624;28;20446;-77
2021/10/18 14:18:29;;;;;;;6.23;4.80;;;;;;;;;;5072785;28;20440;-76
2021/10/18 14:20:57;;;;;;;7.73;5.97;;;;;;;;;;5072879;28;20530;-76
2021/10/18 14:23:25;;;;;;;7.37;5.63;;;;;;;;;;5072878;28;20442;-76
2021/10/18 14:25:52;;;;;;;6.57;4.60;;;;;;;;;;5072510;28;20455;-76
2021/10/18 14:28:19;;;;;;;12.03;6.30;;;;;;;;;;5073209;28;20438;-76
2021/10/18 14:30:47;;;;;;;6.40;5.13;;;;;;;;;;5072515;28;20452;-77
2021/10/18 14:33:14;;;;;;;5.80;4.70;;;;;;;;;;5072463;28;20924;-76
2021/10/18 14:35:41;;;;;;;8.30;5.07;;;;;;;;;;5073002;28;20452;-76
2021/10/18 14:38:09;;;;;;;7.63;5.70;;;;;;;;;;5072746;28;20432;-75
2021/10/18 14:40:37;;;;;;;9.00;5.10;;;;;;;;;;5073241;28;20451;-76
2021/10/18 14:43:04;;;;;;;8.27;4.60;;;;;;;;;;5072976;28;20542;-75
2021/10/18 14:45:32;;;;;;;9.03;5.67;;;;;;;;;;5072645;28;20804;-75
2021/10/18 14:48:00;;;;;;;6.13;4.40;;;;;;;;;;5072583;28;20495;-75
2021/10/18 14:50:28;;;;;;;5.80;4.40;;;;;;;;;;5073299;28;20755;-76
2021/10/18 14:52:55;;;;;;;8.20;5.40;;;;;;;;;;5073654;28;20449;-75
2021/10/18 14:55:23;;;;;;;6.70;5.20;;;;;;;;;;5076193;28;20526;-76
2021/10/18 14:57:51;;;;;;;10.13;5.33;;;;;;;;;;5076803;28;20549;-79
2021/10/18 15:00:18;;;;;;;6.47;4.70;;;;;;;;;;5075154;28;20444;-75
2021/10/18 15:02:47;;;;;;;8.60;4.90;;;;;;;;;;5075600;28;20254;-76
2021/10/18 15:05:14;;;;;;;5.90;4.50;;;;;;;;;;5075747;28;20501;-75
2021/10/18 15:07:41;;;;;;;6.30;4.20;;;;;;;;;;5075688;28;20960;-76
2021/10/18 15:10:09;;;;;;;6.07;4.73;;;;;;;;;;5076018;28;20434;-81
2021/10/18 15:12:37;;;;;;;5.97;4.17;;;;;;;;;;5076199;28;20437;-75
2021/10/18 15:15:05;;;;;;;7.77;4.47;;;;;;;;;;5076218;28;20862;-77
2021/10/18 15:17:32;;;;;;;8.83;4.63;;;;;;;;;;5075827;28;20455;-76
2021/10/18 15:19:59;;;;;;;10.17;4.80;;;;;;;;;;5078220;28;20477;-76
2021/10/18 15:22:26;;;;;;;5.63;4.17;;;;;;;;;;5095478;28;21058;-75
2021/10/18 15:24:54;;;;;;;6.93;4.40;;;;;;;;;;5095604;28;20442;-76
2021/10/18 15:27:22;;;;;;;10.10;4.50;;;;;;;;;;5095604;28;20441;-75
2021/10/18 15:29:51;;;;;;;14.67;12.80;;;;;;;;;;5095912;28;20500;-76
2021/10/18 15:32:18;;;;;;;8.30;6.87;;;;;;;;;;5095771;28;20445;-75
2021/10/18 15:34:45;;;;;;;8.13;4.93;;;;;;;;;;5095491;28;20940;-76
2021/10/18 15:37:12;;;;;;;5.30;4.80;;;;;;;;;;5095708;28;20446;-75
2021/10/18 15:39:40;;;;;;;17.63;5.67;;;;;;;;;;5095591;28;20445;-76